Chichilianne (38) - D

Date : 21/04/2012
Distance : 2730,000 km

Place Nom Licence Catégorie Club Temps min/km CN à J-60 Points Différence Nouveau CN
1 MOISSET Jacques 2328 H60 7403RA 0:27:52 0'00 4599 5002 +403 5002
2 MASLIAH Raphaël 26389 H14 2610RA 0:30:04 0'00 4636 0
3 DROIN Solène 17925 D16 4201RA 0:32:08 0'00 4634 4338 -296 4824
4 DUDOIGNON Chloé 18089 D14 2605RA 0:34:06 0'00 3187 4088 +901 3272
5 GENNARO Mathis 22689 H12 3811RA 0:34:35 0'00 2909 4031 +1122 2994
6 MAISONNEUVE Valentine 16357 D18 4203RA 0:34:57 0'00 4576 3988 -588 4416
7 VIGIER Léo 22094 H14 4203RA 0:35:24 0'00 3194 3938 +744 3299
8 DEVRIEUX Naïs 7672 D18 4203RA 0:35:47 0'00 5941 3895 -2046 5649
9 RIVOLLIER Isaline 22451 D16 4201RA 0:39:25 0'00 3898 3536 -362 4246
10 ROCHE Maxime 15418 H14 6911RA 0:39:56 0'00 2808 3491 +683 2768
11 SINIBALDI Marc 1347 H70 3801RA 0:40:34 0'00 4507 3436 -1071 3894
12 COMBET Annie 813 D50 4203RA 0:42:43 0'00 4353 3263 -1090 4370
13 GOLMARD Christian 2669 H65 2101BO 0:43:02 0'00 4863 3239 -1624 4699
14 DANJON J-Yves 8699 H60 6911RA 0:43:43 0'00 3188 2961
15 PITAVAL Sylvie 12060 D50 4201RA 0:44:35 0'00 3820 3127 -693 3820
16 BERRARD Tom 19761 H14 2607RA 0:44:49 0'00 3663 3110 -553 3603
17 ANNE Roger 1673 H60 0111RA 0:49:23 0'01 4262 2823 -1439 4171
18 ROBERT Francoise 6491 D60 6913RA 0:50:44 0'01 4524 2748 -1776 4115
19 DIDIER Marion 19566 D14 7305RA 0:53:22 0'01 2076 2612 +536 2220
20 ANNE Brigitte 1672 D60 0111RA 0:55:15 0'01 3257 2523 -734 3137
21 BERLAND Julien 24057 H14 3809RA 0:56:35 0'01 2871 2463 -408 2925
22 CHAREYRE Régis 25321 H14 2607RA 0:56:44 0'01 2457 0
23 JAGLE Jean-Marc 3512 H65 0111RA 0:58:49 0'01 2955 2370 -585 2712
24 LEVESY Salomé 23127 D14 3810RA 1:00:05 0'01 2568 2320 -248 2506
25 LAURENT ELODIE 24671 D14 2606RA 1:01:09 0'01 1802 2279 +477 1993
26 CARBONNEAUX Théo 26415 H14 2610RA 1:01:54 0'01 2252 0
27 RAUCOULES Christine 258 D60 3811RA 1:02:23 0'01 2916 2234 -682 2916
28 PERMINGEAT Helene 21054 D55 2606RA 1:02:24 0'01 3222 2234 -988 3222
29 MANGUERO Denise 2354 D55 2604RA 1:02:48 0'01 3084 2220 -864 2823
30 LENFANT Chantal 10264 D55 3811RA 1:04:18 0'01 3092 2168 -924 3092
31 XIMENEZ Michel 21360 H45 3801RA 1:04:33 0'01 2989 2159 -830 2906
32 RYCKEBOER Alizé 20146 D14 8319AZ 1:05:13 0'01 2092 2137 +45 2136
33 GARON Perrine 21097 D14 2607RA 1:07:24 0'01 1623 2068 +445 1813
34 MOISSET Nicole 2329 D55 7403RA 1:08:25 0'01 3360 2037 -1323 3152
35 LEBRUN Valérie 25215 D35 3810RA 1:08:53 0'01 0 2024 1705
36 BENOIT Nathalie 18122 D35 2607RA 1:09:57 0'01 2048 1993 -55 2363
37 MONTERRAT Martine 8512 D50 4203RA 1:12:52 0'01 3313 1913 -1400 3313
38 DESCOURVIERES Perrine 25550 D16 7407RA 1:13:23 0'01 1899 1694
39 ROCHAT Jodie 26125 D16 7407RA 1:17:22 0'01 1802 0
40 FINO Béatrice 1674 D40 0111RA 1:18:55 0'01 2538 1766 -772 2375
41 GARON Corinne 21096 D45 2607RA 1:20:38 0'01 1780 1729 -51 1773
42 PERREARD-GARIN Soraya 25343 D14 7407RA 1:29:56 0'01 1601 1550 -51 1716
43 VORWERK Camille 25747 D14 4201RA 1:31:19 0'02 1526 0
44 VORWERK Marine 25746 D14 4201RA 1:37:01 0'02 1437 1380
45 BOCCHIETTI Christine 25847 D21 7305RA 1:43:04 0'02 1352 0
LELOUP Anouk 8108 D18 7305RA pm None 0 0 0
HABAUZIT Killian 23667 H14 2606RA pm None 1765 0 1765
ROMEY Emilie 26017 D21 3801RA pm None 0 0